createdAt,value
2022-08-23T00:00:37.007Z,99.99
2022-08-23T00:04:02.917Z,99.99
2022-08-23T00:06:02.980Z,99.99
2022-08-23T00:07:03.301Z,99.99
2022-08-23T00:08:03.750Z,99.99
2022-08-23T00:10:03.083Z,99.99
2022-08-23T00:11:03.114Z,99.99
2022-08-23T00:12:03.141Z,99.99
2022-08-23T00:13:03.181Z,99.99
2022-08-23T00:22:09.125Z,99.99
2022-08-23T00:23:09.156Z,99.99
2022-08-23T00:25:09.228Z,99.99
2022-08-23T00:36:08.527Z,99.99
2022-08-23T00:40:16.557Z,99.99
2022-08-23T00:41:16.307Z,99.99
2022-08-23T00:42:16.319Z,99.99
2022-08-23T00:45:16.427Z,99.99
2022-08-23T00:46:16.853Z,99.99
2022-08-23T00:47:17.189Z,99.99
2022-08-23T00:48:17.115Z,99.99
2022-08-23T00:51:16.596Z,99.99
2022-08-23T00:53:16.641Z,99.99
2022-08-23T00:54:16.672Z,99.99
2022-08-23T00:55:16.699Z,99.99
2022-08-23T00:56:16.730Z,99.99
2022-08-23T00:59:44.639Z,99.99
2022-08-23T01:01:17.974Z,99.99
2022-08-23T01:01:44.867Z,99.99
2022-08-23T01:02:44.541Z,99.99
2022-08-23T01:04:44.597Z,99.99
2022-08-23T01:06:44.658Z,99.99
2022-08-23T01:08:45.323Z,99.99
2022-08-23T01:09:44.951Z,99.99
2022-08-23T01:11:17.992Z,99.99
2022-08-23T01:13:45.271Z,99.99
2022-08-23T01:14:45.503Z,99.99
2022-08-23T01:15:45.121Z,99.99
2022-08-23T01:16:44.940Z,99.99
2022-08-23T01:17:44.966Z,99.99
2022-08-23T01:18:44.997Z,99.99
2022-08-23T01:19:45.024Z,99.99
2022-08-23T01:20:45.055Z,99.99
2022-08-23T01:21:45.083Z,99.99
2022-08-23T01:22:45.316Z,99.99
2022-08-23T01:23:45.343Z,99.99
2022-08-23T01:25:06.514Z,99.99
2022-08-23T01:25:45.199Z,99.99
2022-08-23T01:26:45.231Z,99.99
2022-08-23T01:27:45.257Z,99.99
2022-08-23T01:28:45.898Z,99.99
2022-08-23T01:29:45.327Z,99.99
2022-08-23T01:30:45.348Z,99.99
2022-08-23T01:32:45.416Z,99.99
2022-08-23T01:33:45.638Z,99.99
2022-08-23T01:34:51.638Z,99.99
2022-08-23T01:35:45.495Z,99.99
2022-08-23T01:37:45.563Z,99.99
2022-08-23T01:38:48.202Z,99.99
2022-08-23T01:39:45.695Z,99.99
2022-08-23T01:40:45.637Z,99.99
2022-08-23T01:41:45.665Z,99.99
2022-08-23T01:42:45.709Z,99.99
2022-08-23T01:43:45.736Z,99.99
2022-08-23T01:46:45.815Z,99.99
2022-08-23T01:47:45.858Z,99.99
2022-08-23T01:48:45.870Z,99.99
2022-08-23T01:49:45.899Z,99.99
2022-08-23T01:50:45.940Z,99.99
2022-08-23T01:51:45.956Z,99.99
2022-08-23T01:52:46.766Z,99.99
2022-08-23T01:53:46.015Z,99.99
2022-08-23T01:54:46.046Z,99.99
2022-08-23T01:55:46.088Z,99.99
2022-08-23T01:56:46.119Z,99.99
2022-08-23T01:57:49.299Z,99.99
2022-08-23T01:58:46.175Z,99.99
2022-08-23T01:59:46.190Z,99.99
2022-08-23T02:00:46.222Z,99.99
2022-08-23T02:01:46.324Z,99.99
2022-08-23T02:02:46.282Z,99.99
2022-08-23T02:03:46.308Z,99.99
2022-08-23T02:04:46.340Z,99.99
2022-08-23T02:05:46.624Z,99.99
2022-08-23T02:06:46.406Z,99.99
2022-08-23T02:07:46.426Z,99.99
2022-08-23T02:08:46.456Z,99.99
2022-08-23T02:10:46.573Z,99.99
2022-08-23T02:11:46.864Z,99.99
2022-08-23T02:12:46.583Z,99.99
2022-08-23T02:13:46.827Z,99.99
2022-08-23T02:14:46.646Z,99.99
2022-08-23T02:16:58.046Z,99.99
2022-08-23T02:17:47.429Z,99.99
2022-08-23T02:30:59.299Z,99.99
2022-08-23T02:31:59.955Z,99.99
2022-08-23T02:57:48.495Z,99.99
2022-08-23T02:58:48.568Z,99.99
2022-08-23T02:59:48.755Z,99.99
2022-08-23T03:00:48.935Z,99.99
2022-08-23T03:01:48.606Z,99.99
2022-08-23T03:02:48.637Z,99.99
2022-08-23T03:03:49.112Z,99.99
2022-08-23T03:04:48.692Z,99.99
2022-08-23T03:05:48.767Z,99.99
2022-08-23T03:06:48.753Z,99.99
2022-08-23T03:42:57.781Z,99.99
2022-08-23T03:43:57.811Z,99.99
2022-08-23T03:45:01.911Z,99.99
2022-08-23T03:45:57.868Z,99.99
2022-08-23T03:46:57.893Z,99.99
2022-08-23T03:47:58.023Z,99.99
2022-08-23T03:48:57.952Z,99.99
2022-08-23T03:49:57.983Z,99.99
2022-08-23T03:50:58.007Z,99.99
2022-08-23T03:52:58.066Z,99.99
2022-08-23T03:53:58.093Z,99.99
2022-08-23T03:54:58.138Z,99.99
2022-08-23T03:57:43.301Z,99.99
2022-08-23T03:58:43.333Z,99.99
2022-08-23T03:59:43.358Z,99.99
2022-08-23T04:00:43.388Z,99.99
2022-08-23T04:01:43.469Z,99.99
2022-08-23T04:02:43.445Z,99.99
2022-08-23T04:03:43.473Z,99.99
2022-08-23T04:04:43.503Z,99.99
2022-08-23T04:05:43.532Z,99.99
2022-08-23T04:06:43.560Z,99.99
2022-08-23T04:07:43.588Z,99.99
2022-08-23T04:08:43.619Z,99.99
2022-08-23T04:09:44.496Z,99.99
2022-08-23T04:10:43.675Z,99.99
2022-08-23T04:12:41.288Z,99.99
2022-08-23T04:14:41.343Z,99.99
2022-08-23T04:17:01.622Z,99.99
2022-08-23T04:18:32.237Z,99.99
2022-08-23T04:18:59.060Z,99.99
2022-08-23T04:19:59.085Z,99.99
2022-08-23T04:20:59.112Z,99.99
2022-08-23T04:21:59.142Z,99.99
2022-08-23T04:22:59.169Z,99.99
2022-08-23T04:23:59.197Z,99.99
2022-08-23T04:24:59.228Z,99.99
2022-08-23T04:25:59.254Z,99.99
2022-08-23T04:26:59.297Z,99.99
2022-08-23T04:27:59.554Z,99.99
2022-08-23T04:28:59.341Z,99.99
2022-08-23T04:29:59.369Z,99.99
2022-08-23T04:30:59.399Z,99.99
2022-08-23T04:31:59.430Z,99.99
2022-08-23T04:32:59.455Z,99.99
2022-08-23T04:33:59.484Z,99.99
2022-08-23T04:34:59.514Z,99.99
2022-08-23T04:35:59.541Z,99.99
2022-08-23T04:36:59.571Z,99.99
2022-08-23T04:37:59.834Z,99.99
2022-08-23T04:38:59.630Z,99.99
2022-08-23T04:39:59.679Z,99.99
2022-08-23T04:40:59.687Z,99.99
2022-08-23T04:41:59.714Z,99.99
2022-08-23T04:42:59.746Z,99.99
2022-08-23T04:44:00.581Z,99.99
2022-08-23T04:44:59.801Z,99.99
2022-08-23T04:45:59.825Z,99.99
2022-08-23T04:46:59.856Z,99.99
2022-08-23T04:48:00.176Z,99.99
2022-08-23T04:48:59.911Z,99.99
2022-08-23T04:49:59.952Z,99.99
2022-08-23T04:51:00.182Z,99.99
2022-08-23T04:52:00.010Z,99.99
2022-08-23T04:53:00.238Z,99.99
2022-08-23T04:55:00.100Z,99.99
2022-08-23T04:56:00.329Z,99.99
2022-08-23T04:57:00.150Z,99.99
2022-08-23T04:59:00.412Z,99.99
2022-08-23T05:01:00.818Z,99.99
2022-08-23T05:02:00.301Z,99.99
2022-08-23T05:03:00.525Z,99.99
2022-08-23T05:05:00.581Z,99.99
2022-08-23T05:06:00.612Z,99.99
2022-08-23T05:10:00.524Z,99.99
2022-08-23T05:12:00.783Z,99.99
2022-08-23T05:15:01.366Z,99.99
2022-08-23T05:17:01.841Z,99.99
2022-08-23T05:22:00.871Z,99.99
2022-08-23T05:29:03.199Z,99.99
2022-08-23T05:34:01.417Z,99.99
2022-08-23T05:39:03.177Z,99.99
2022-08-23T05:40:02.409Z,99.99
2022-08-23T05:47:01.884Z,99.99
2022-08-23T05:50:02.802Z,99.99
2022-08-23T05:51:03.327Z,99.99
2022-08-23T05:55:04.438Z,99.99
2022-08-23T05:58:02.244Z,99.99
2022-08-23T05:59:02.151Z,99.99
2022-08-23T06:00:01.964Z,99.99
2022-08-23T06:01:02.055Z,99.99
2022-08-23T06:02:02.018Z,99.99
2022-08-23T06:03:02.051Z,99.99
2022-08-23T06:04:05.913Z,99.99
2022-08-23T06:05:02.330Z,99.99
2022-08-23T06:06:02.661Z,99.99
2022-08-23T06:07:02.170Z,99.99
2022-08-23T06:08:02.459Z,99.99
2022-08-23T06:09:02.227Z,99.99
2022-08-23T06:10:02.256Z,99.99
2022-08-23T06:11:02.291Z,99.99
2022-08-23T06:12:02.318Z,99.99
2022-08-23T06:13:02.349Z,99.99
2022-08-23T06:14:02.451Z,99.99
2022-08-23T06:15:02.406Z,98.54
2022-08-23T06:16:03.131Z,98.92
2022-08-23T06:17:02.466Z,98.73
2022-08-23T06:19:35.166Z,94.82
2022-08-23T06:20:35.573Z,93.56
2022-08-23T06:21:35.242Z,93.62
2022-08-23T06:22:35.275Z,94.29
2022-08-23T06:24:35.740Z,93.62
2022-08-23T06:25:35.372Z,93.32
2022-08-23T06:26:35.805Z,92.02
2022-08-23T06:27:35.639Z,92.32
2022-08-23T06:28:36.233Z,93.18
2022-08-23T06:29:36.108Z,92.85
2022-08-23T06:30:39.581Z,92.36
2022-08-23T06:32:36.579Z,93.04
2022-08-23T06:33:36.183Z,93.43
2022-08-23T06:34:35.863Z,93.13
2022-08-23T06:37:36.252Z,91.98
2022-08-23T06:51:36.213Z,81.79
2022-08-23T06:52:36.430Z,79.64
2022-08-23T06:53:36.784Z,78.52
2022-08-23T06:54:36.305Z,77.24
2022-08-23T06:55:36.328Z,75.34
2022-08-23T06:56:36.360Z,73.91
2022-08-23T06:57:37.812Z,73.39
2022-08-23T06:58:39.653Z,73.52
2022-08-23T06:59:36.462Z,75.09
2022-08-23T07:00:36.529Z,76.79
2022-08-23T07:01:49.097Z,78.11
2022-08-23T07:02:36.604Z,79.49
2022-08-23T07:03:36.748Z,80.16
2022-08-23T07:06:36.696Z,75.45
2022-08-23T07:07:41.239Z,74.43
2022-08-23T07:08:36.765Z,73.72
2022-08-23T07:09:36.797Z,72.11
2022-08-23T07:10:36.835Z,70.00
2022-08-23T07:11:36.871Z,68.90
2022-08-23T07:12:36.904Z,69.03
2022-08-23T07:13:36.938Z,68.93
2022-08-23T07:14:36.976Z,68.38
2022-08-23T07:15:37.009Z,67.99
2022-08-23T07:16:37.147Z,67.35
2022-08-23T07:17:37.093Z,67.54
2022-08-23T07:18:37.132Z,66.76
2022-08-23T07:20:10.366Z,65.23
2022-08-23T07:20:37.190Z,66.21
2022-08-23T07:22:10.440Z,66.02
2022-08-23T07:22:37.267Z,65.88
2022-08-23T07:24:19.859Z,65.36
2022-08-23T07:25:19.899Z,64.42
2022-08-23T07:26:19.935Z,63.42
2022-08-23T07:27:21.386Z,63.32
2022-08-23T07:28:20.009Z,64.20
2022-08-23T07:29:20.049Z,63.93
2022-08-23T07:30:20.085Z,64.03
2022-08-23T07:31:20.246Z,64.16
2022-08-23T07:32:20.240Z,62.73
2022-08-23T07:33:20.201Z,61.72
2022-08-23T07:34:20.242Z,61.46
2022-08-23T07:35:21.603Z,61.63
2022-08-23T07:36:20.321Z,61.76
2022-08-23T07:37:20.360Z,61.07
2022-08-23T07:38:20.398Z,61.07
2022-08-23T07:40:20.987Z,61.20
2022-08-23T07:41:20.718Z,60.71
2022-08-23T07:42:23.735Z,60.25
2022-08-23T07:43:20.798Z,60.84
2022-08-23T07:44:22.455Z,59.38
2022-08-23T07:45:22.307Z,59.57
2022-08-23T07:46:20.757Z,59.57
2022-08-23T07:47:20.758Z,59.05
2022-08-23T07:48:37.323Z,58.89
2022-08-23T07:49:20.842Z,59.51
2022-08-23T07:50:20.878Z,60.10
2022-08-23T07:51:20.962Z,59.83
2022-08-23T07:52:20.959Z,60.03
2022-08-23T07:53:37.465Z,60.25
2022-08-23T07:54:21.038Z,59.20
2022-08-23T07:55:21.081Z,58.81
2022-08-23T07:56:21.118Z,59.23
2022-08-23T07:57:21.164Z,58.75
2022-08-23T07:58:21.202Z,58.36
2022-08-23T07:59:21.243Z,58.55
2022-08-23T08:00:21.285Z,58.42
2022-08-23T08:01:24.367Z,58.55
2022-08-23T08:02:22.375Z,58.48
2022-08-23T08:03:21.420Z,58.28
2022-08-23T08:04:21.456Z,57.97
2022-08-23T08:05:22.113Z,58.38
2022-08-23T08:06:21.537Z,57.31
2022-08-23T08:07:21.786Z,57.45
2022-08-23T08:08:21.609Z,59.01
2022-08-23T08:09:21.652Z,58.62
2022-08-23T08:10:21.752Z,58.72
2022-08-23T08:11:21.736Z,58.13
2022-08-23T08:12:21.775Z,59.11
2022-08-23T08:13:21.826Z,59.25
2022-08-23T08:14:21.859Z,60.06
2022-08-23T08:15:21.900Z,58.81
2022-08-23T08:16:22.018Z,59.14
2022-08-23T08:17:26.834Z,58.31
2022-08-23T08:18:22.022Z,56.95
2022-08-23T08:19:22.078Z,57.24
2022-08-23T08:20:22.223Z,56.46
2022-08-23T08:21:22.149Z,56.26
2022-08-23T08:22:22.186Z,56.38
2022-08-23T08:23:22.230Z,55.99
2022-08-23T08:24:22.271Z,56.09
2022-08-23T08:25:22.313Z,56.02
2022-08-23T08:26:22.353Z,55.24
2022-08-23T08:27:22.395Z,54.25
2022-08-23T08:28:22.435Z,54.87
2022-08-23T08:30:22.521Z,55.24
2022-08-23T08:31:22.614Z,55.53
2022-08-23T08:32:22.603Z,55.51
2022-08-23T08:33:22.643Z,55.82
2022-08-23T08:34:22.686Z,56.41
2022-08-23T08:35:22.753Z,55.14
2022-08-23T08:36:22.769Z,55.07
2022-08-23T08:37:22.810Z,54.68
2022-08-23T08:38:22.851Z,54.94
2022-08-23T08:39:22.891Z,55.31
2022-08-23T08:40:22.975Z,55.31
2022-08-23T08:41:22.981Z,55.82
2022-08-23T08:42:23.021Z,56.21
2022-08-23T08:43:23.056Z,56.77
2022-08-23T08:44:23.100Z,55.57
2022-08-23T08:45:23.441Z,55.65
2022-08-23T08:46:23.212Z,56.36
2022-08-23T08:47:23.232Z,56.33
2022-08-23T08:48:23.266Z,57.64
2022-08-23T08:49:23.509Z,57.77
2022-08-23T08:50:23.349Z,57.60
2022-08-23T08:51:23.400Z,57.79
2022-08-23T08:52:23.446Z,57.79
2022-08-23T08:53:23.474Z,57.99
2022-08-23T08:54:23.516Z,58.55
2022-08-23T08:55:23.555Z,57.67
2022-08-23T08:56:23.598Z,57.60
2022-08-23T08:57:27.312Z,56.95
2022-08-23T08:58:23.681Z,56.16
2022-08-23T08:59:23.724Z,56.65
2022-08-23T09:00:23.762Z,55.90
2022-08-23T09:01:23.840Z,55.11
2022-08-23T09:02:32.410Z,55.53
2022-08-23T09:03:23.932Z,55.90
2022-08-23T09:04:23.923Z,56.51
2022-08-23T09:05:23.965Z,55.85
2022-08-23T09:06:24.017Z,55.10
2022-08-23T09:07:26.890Z,54.04
2022-08-23T09:08:24.088Z,53.87
2022-08-23T09:09:24.129Z,53.38
2022-08-23T09:10:24.173Z,53.19
2022-08-23T09:11:24.220Z,54.04
2022-08-23T09:12:24.251Z,53.43
2022-08-23T09:13:24.292Z,53.75
2022-08-23T09:14:24.335Z,53.85
2022-08-23T09:15:24.371Z,53.94
2022-08-23T09:16:24.414Z,54.33
2022-08-23T09:17:24.455Z,53.72
2022-08-23T09:18:24.499Z,53.77
2022-08-23T09:19:25.132Z,53.82
2022-08-23T09:20:24.584Z,54.50
2022-08-23T09:21:24.620Z,54.24
2022-08-23T09:22:24.665Z,54.24
2022-08-23T09:23:24.703Z,53.77
2022-08-23T09:24:24.747Z,53.55
2022-08-23T09:25:24.799Z,53.09
2022-08-23T09:26:24.840Z,53.45
2022-08-23T09:27:24.870Z,54.56
2022-08-23T09:28:24.913Z,54.66
2022-08-23T09:29:24.954Z,54.33
2022-08-23T09:30:24.998Z,54.44
2022-08-23T09:31:25.058Z,54.33
2022-08-23T09:32:25.077Z,53.45
2022-08-23T09:33:26.235Z,53.58
2022-08-23T09:34:25.163Z,53.67
2022-08-23T09:35:25.202Z,53.31
2022-08-23T09:36:25.245Z,53.11
2022-08-23T09:37:25.285Z,52.92
2022-08-23T09:39:30.694Z,53.09
2022-08-23T09:40:25.411Z,53.19
2022-08-23T09:41:25.449Z,53.75
2022-08-23T09:43:25.538Z,54.33
2022-08-23T09:44:25.573Z,53.87
2022-08-23T09:45:26.524Z,53.21
2022-08-23T09:46:25.697Z,52.62
2022-08-23T09:47:25.706Z,52.23
2022-08-23T09:48:30.695Z,52.35
2022-08-23T09:49:25.781Z,51.84
2022-08-23T09:50:25.826Z,52.99
2022-08-23T09:51:25.864Z,54.41
2022-08-23T09:52:25.905Z,55.41
2022-08-23T09:53:25.948Z,55.10
2022-08-23T09:54:25.975Z,54.36
2022-08-23T09:55:26.011Z,53.87
2022-08-23T09:56:26.444Z,53.60
2022-08-23T09:57:26.105Z,52.97
2022-08-23T09:58:26.145Z,52.65
2022-08-23T09:59:26.785Z,53.23
2022-08-23T10:00:26.218Z,53.31
2022-08-23T10:01:26.347Z,53.33
2022-08-23T10:02:27.542Z,52.06
2022-08-23T10:03:26.327Z,52.45
2022-08-23T10:04:26.444Z,52.45
2022-08-23T10:05:26.402Z,53.80
2022-08-23T10:06:26.444Z,53.11
2022-08-23T10:07:26.891Z,53.21
2022-08-23T10:08:26.517Z,53.87
2022-08-23T10:09:26.555Z,54.56
2022-08-23T10:10:26.597Z,54.83
2022-08-23T10:11:26.637Z,54.33
2022-08-23T10:13:09.237Z,54.83
2022-08-23T10:14:09.286Z,54.36
2022-08-23T10:17:56.963Z,53.38
2022-08-23T10:18:57.002Z,53.41
2022-08-23T10:19:57.041Z,53.58
2022-08-23T10:20:57.078Z,53.87
2022-08-23T10:21:57.116Z,54.33
2022-08-23T10:27:58.760Z,55.15
2022-08-23T10:28:57.380Z,53.97
2022-08-23T10:29:57.422Z,53.67
2022-08-23T10:30:57.561Z,53.11
2022-08-23T10:31:59.264Z,53.11
2022-08-23T10:32:58.546Z,52.62
2022-08-23T10:33:57.575Z,52.75
2022-08-23T10:34:57.615Z,52.52
2022-08-23T10:35:57.652Z,52.03
2022-08-23T10:36:57.691Z,53.16
2022-08-23T10:37:57.801Z,52.69
2022-08-23T10:38:57.776Z,52.80
2022-08-23T10:40:01.643Z,52.92
2022-08-23T10:40:57.842Z,52.82
2022-08-23T10:41:57.883Z,52.06
2022-08-23T10:42:57.920Z,52.25
2022-08-23T10:43:57.959Z,52.25
2022-08-23T10:44:57.996Z,52.03
2022-08-23T10:46:00.400Z,51.74
2022-08-23T10:46:58.075Z,52.23
2022-08-23T10:47:58.113Z,52.30
2022-08-23T10:48:58.149Z,52.72
2022-08-23T10:49:58.188Z,52.33
2022-08-23T10:50:58.226Z,52.03
2022-08-23T10:51:58.265Z,52.33
2022-08-23T10:52:58.302Z,52.84
2022-08-23T10:53:58.343Z,52.84
2022-08-23T10:54:58.379Z,52.28
2022-08-23T10:55:58.419Z,51.50
2022-08-23T10:56:58.456Z,50.71
2022-08-23T10:57:58.494Z,51.27
2022-08-23T10:58:58.531Z,51.76
2022-08-23T10:59:58.570Z,52.06
2022-08-23T11:00:58.606Z,51.57
2022-08-23T11:01:58.716Z,51.84
2022-08-23T11:02:58.732Z,52.84
2022-08-23T11:03:58.722Z,53.23
2022-08-23T11:04:58.758Z,53.85
2022-08-23T11:05:58.799Z,53.63
2022-08-23T11:06:58.835Z,53.23
2022-08-23T11:07:58.876Z,52.96
2022-08-23T11:08:58.910Z,53.53
2022-08-23T11:09:58.955Z,53.75
2022-08-23T11:10:58.986Z,53.06
2022-08-23T11:11:59.024Z,53.72
2022-08-23T11:12:59.060Z,54.60
2022-08-23T11:13:59.099Z,54.50
2022-08-23T11:14:59.135Z,54.02
2022-08-23T11:15:59.239Z,55.10
2022-08-23T11:16:59.208Z,55.10
2022-08-23T11:17:59.247Z,55.19
2022-08-23T11:18:59.282Z,54.80
2022-08-23T11:19:59.336Z,54.70
2022-08-23T11:20:59.356Z,54.68
2022-08-23T11:21:59.395Z,55.24
2022-08-23T11:22:59.432Z,55.60
2022-08-23T11:23:59.469Z,56.21
2022-08-23T11:24:59.505Z,56.29
2022-08-23T11:25:59.543Z,56.46
2022-08-23T11:27:04.010Z,56.65
2022-08-23T11:27:59.631Z,57.43
2022-08-23T11:29:59.688Z,57.60
2022-08-23T11:30:59.749Z,58.18
2022-08-23T11:31:59.765Z,57.77
2022-08-23T11:32:59.796Z,58.75
2022-08-23T11:33:59.835Z,58.65
2022-08-23T11:34:59.869Z,58.16
2022-08-23T11:35:59.907Z,58.26
2022-08-23T11:36:59.941Z,58.65
2022-08-23T11:39:00.016Z,58.75
2022-08-23T11:40:00.177Z,58.26
2022-08-23T11:41:00.096Z,57.64
2022-08-23T11:42:45.296Z,58.62
2022-08-23T11:43:42.707Z,58.13
2022-08-23T11:44:42.745Z,58.62
2022-08-23T11:45:42.777Z,58.52
2022-08-23T11:46:42.812Z,58.81
2022-08-23T11:47:42.857Z,58.52
2022-08-23T11:48:43.615Z,58.65
2022-08-23T11:49:42.922Z,58.65
2022-08-23T11:50:42.957Z,58.16
2022-08-23T11:51:44.409Z,58.36
2022-08-23T11:52:43.038Z,58.16
2022-08-23T11:53:43.280Z,58.52
2022-08-23T11:55:44.261Z,58.89
2022-08-23T12:11:12.491Z,55.45
2022-08-23T12:12:12.527Z,55.47
2022-08-23T12:13:12.559Z,55.06
2022-08-23T12:14:12.598Z,55.22
2022-08-23T12:15:12.633Z,55.81
2022-08-23T12:16:16.797Z,56.60
2022-08-23T12:17:12.701Z,56.57
2022-08-23T12:18:12.865Z,57.54
2022-08-23T12:19:13.506Z,57.87
2022-08-23T12:20:16.514Z,57.09
2022-08-23T12:21:12.842Z,56.89
2022-08-23T12:22:12.878Z,57.87
2022-08-23T12:23:12.913Z,58.26
2022-08-23T12:24:12.949Z,57.28
2022-08-23T12:25:15.614Z,55.91
2022-08-23T12:26:13.018Z,56.47
2022-08-23T12:27:16.483Z,56.86
2022-08-23T12:28:13.089Z,57.87
2022-08-23T12:29:13.152Z,57.97
2022-08-23T12:30:13.157Z,58.55
2022-08-23T12:31:14.169Z,58.16
2022-08-23T12:32:13.229Z,57.87
2022-08-23T12:33:13.260Z,57.89
2022-08-23T12:34:13.299Z,57.11
2022-08-23T12:35:13.334Z,56.04
2022-08-23T12:36:16.473Z,56.23
2022-08-23T12:37:13.405Z,56.13
2022-08-23T12:38:13.439Z,55.74
2022-08-23T12:39:13.472Z,56.43
2022-08-23T12:40:13.582Z,56.23
2022-08-23T12:41:13.543Z,56.04
2022-08-23T12:42:13.581Z,56.06
2022-08-23T12:43:17.410Z,56.26
2022-08-23T12:44:13.650Z,56.06
2022-08-23T12:45:13.683Z,56.06
2022-08-23T12:46:13.787Z,55.77
2022-08-23T12:47:13.756Z,55.47
2022-08-23T12:48:13.799Z,55.08
2022-08-23T12:49:15.133Z,55.67
2022-08-23T12:50:15.125Z,56.06
2022-08-23T12:51:13.895Z,56.65
2022-08-23T12:52:13.932Z,56.36
2022-08-23T12:53:13.965Z,55.77
2022-08-23T12:54:14.001Z,55.96
2022-08-23T12:55:14.035Z,55.67
2022-08-23T12:56:14.076Z,55.87
2022-08-23T12:57:14.106Z,56.46
2022-08-23T12:58:14.290Z,56.85
2022-08-23T12:59:14.176Z,55.74
2022-08-23T13:00:16.596Z,56.23
2022-08-23T13:01:14.284Z,56.23
2022-08-23T13:02:14.342Z,56.23
2022-08-23T13:03:14.315Z,56.50
2022-08-23T13:04:14.353Z,57.01
2022-08-23T13:05:14.386Z,56.33
2022-08-23T13:06:14.431Z,57.79
2022-08-23T13:07:14.456Z,56.62
2022-08-23T13:08:14.493Z,57.24
2022-08-23T13:09:14.530Z,57.11
2022-08-23T13:10:14.562Z,57.53
2022-08-23T13:11:14.597Z,56.65
2022-08-23T13:12:14.635Z,56.13
2022-08-23T13:13:14.869Z,56.72
2022-08-23T13:14:14.705Z,56.23
2022-08-23T13:15:14.737Z,56.23
2022-08-23T13:16:14.835Z,57.21
2022-08-23T13:17:15.024Z,56.52
2022-08-23T13:18:14.845Z,57.11
2022-08-23T13:19:14.877Z,56.92
2022-08-23T13:20:15.325Z,57.01
2022-08-23T13:21:14.949Z,57.01
2022-08-23T13:22:14.986Z,56.33
2022-08-23T13:23:15.018Z,55.65
2022-08-23T13:24:15.056Z,55.45
2022-08-23T13:25:28.596Z,56.23
2022-08-23T13:26:15.127Z,56.43
2022-08-23T13:27:15.362Z,57.28
2022-08-23T13:28:15.209Z,56.20
2022-08-23T13:29:15.230Z,56.37
2022-08-23T13:30:15.267Z,57.64
2022-08-23T13:31:15.413Z,58.65
2022-08-23T13:32:15.338Z,58.84
2022-08-23T13:33:15.371Z,58.26
2022-08-23T13:34:15.408Z,58.84
2022-08-23T13:35:15.442Z,58.16
2022-08-23T13:36:15.478Z,58.09
2022-08-23T13:37:15.510Z,58.65
2022-08-23T13:38:20.121Z,57.99
2022-08-23T13:39:15.583Z,58.28
2022-08-23T13:40:15.654Z,57.67
2022-08-23T13:41:15.653Z,57.79
2022-08-23T13:42:15.690Z,59.23
2022-08-23T13:43:15.723Z,59.14
2022-08-23T13:44:19.151Z,58.84
2022-08-23T13:45:15.794Z,58.84
2022-08-23T13:46:15.876Z,57.67
2022-08-23T13:47:15.864Z,57.67
2022-08-23T13:48:15.899Z,57.28
2022-08-23T13:49:15.935Z,57.09
2022-08-23T13:50:15.971Z,57.57
2022-08-23T13:51:16.005Z,58.45
2022-08-23T13:52:50.592Z,58.36
2022-08-23T13:53:16.077Z,57.48
2022-08-23T13:54:16.111Z,57.79
2022-08-23T13:55:16.146Z,57.40
2022-08-23T13:56:16.182Z,58.18
2022-08-23T13:57:16.216Z,57.82
2022-08-23T13:58:16.252Z,57.73
2022-08-23T13:59:16.284Z,57.34
2022-08-23T14:00:19.464Z,57.43
2022-08-23T14:01:16.409Z,57.34
2022-08-23T14:02:16.393Z,56.26
2022-08-23T14:03:16.426Z,56.26
2022-08-23T14:04:16.464Z,55.67
2022-08-23T14:05:16.545Z,55.87
2022-08-23T14:06:16.534Z,56.16
2022-08-23T14:07:16.570Z,56.65
2022-08-23T14:08:16.604Z,56.52
2022-08-23T14:09:16.640Z,56.92
2022-08-23T14:10:16.674Z,56.72
2022-08-23T14:11:16.708Z,56.33
2022-08-23T14:12:16.744Z,56.62
2022-08-23T14:13:16.784Z,56.82
2022-08-23T14:14:16.816Z,56.40
2022-08-23T14:15:16.849Z,56.82
2022-08-23T14:16:33.191Z,56.70
2022-08-23T14:18:16.953Z,56.99
2022-08-23T14:19:19.135Z,57.11
2022-08-23T14:20:33.996Z,57.21
2022-08-23T14:21:17.062Z,56.52
2022-08-23T14:22:17.095Z,56.72
2022-08-23T14:23:17.136Z,56.82
2022-08-23T14:24:17.167Z,57.31
2022-08-23T14:25:17.202Z,57.21
2022-08-23T14:26:17.245Z,57.09
2022-08-23T14:27:17.271Z,57.57
2022-08-23T14:28:17.306Z,57.06
2022-08-23T14:29:17.342Z,57.87
2022-08-23T14:30:17.397Z,56.89
2022-08-23T14:31:17.459Z,57.25
2022-08-23T14:32:17.444Z,56.96
2022-08-23T14:33:17.483Z,57.74
2022-08-23T14:34:17.514Z,57.67
2022-08-23T14:35:17.550Z,57.87
2022-08-23T14:36:17.585Z,57.09
2022-08-23T14:38:00.464Z,57.57
2022-08-23T14:38:18.041Z,57.97
2022-08-23T14:39:17.692Z,57.57
2022-08-23T14:40:17.800Z,57.70
2022-08-23T14:41:17.761Z,57.38
2022-08-23T14:42:17.808Z,57.21
2022-08-23T14:43:17.831Z,57.31
2022-08-23T14:44:17.863Z,57.48
2022-08-23T14:45:17.899Z,57.67
2022-08-23T14:46:17.995Z,57.97
2022-08-23T14:47:17.968Z,58.26
2022-08-23T14:48:18.002Z,57.97
2022-08-23T14:49:18.039Z,57.77
2022-08-23T14:50:18.072Z,57.77
2022-08-23T14:51:18.108Z,57.38
2022-08-23T14:52:18.144Z,57.09
2022-08-23T14:53:18.181Z,57.67
2022-08-23T14:54:18.211Z,58.06
2022-08-23T14:55:20.219Z,58.16
2022-08-23T14:56:21.555Z,58.16
2022-08-23T14:57:18.376Z,57.87
2022-08-23T14:58:18.354Z,57.67
2022-08-23T14:59:18.387Z,58.38
2022-08-23T15:00:18.423Z,57.11
2022-08-23T15:01:18.546Z,57.21
2022-08-23T15:02:18.490Z,57.70
2022-08-23T15:03:18.560Z,56.95
2022-08-23T15:04:18.564Z,57.14
2022-08-23T15:05:18.598Z,57.04
2022-08-23T15:06:18.631Z,56.46
2022-08-23T15:07:19.493Z,56.46
2022-08-23T15:08:18.702Z,56.06
2022-08-23T15:09:18.740Z,56.16
2022-08-23T15:13:27.425Z,57.31
2022-08-23T15:14:18.910Z,57.11
2022-08-23T15:15:21.839Z,57.21
2022-08-23T15:16:19.045Z,56.82
2022-08-23T15:17:19.017Z,57.11
2022-08-23T15:18:19.050Z,56.82
2022-08-23T15:19:19.088Z,56.33
2022-08-23T15:20:19.122Z,57.09
2022-08-23T15:21:19.159Z,57.57
2022-08-23T15:22:22.056Z,56.89
2022-08-23T15:23:19.228Z,56.99
2022-08-23T15:24:19.262Z,57.18
2022-08-23T15:25:19.300Z,57.57
2022-08-23T15:26:19.332Z,57.87
2022-08-23T15:27:19.470Z,57.67
2022-08-23T15:28:19.403Z,58.33
2022-08-23T15:29:20.499Z,58.81
2022-08-23T15:30:19.477Z,58.42
2022-08-23T15:31:19.509Z,58.81
2022-08-23T15:32:22.622Z,58.42
2022-08-23T15:33:22.343Z,58.33
2022-08-23T15:34:19.612Z,58.52
2022-08-23T15:35:19.649Z,59.11
2022-08-23T15:36:19.682Z,59.20
2022-08-23T15:37:19.719Z,58.91
2022-08-23T15:44:12.342Z,60.25
2022-08-23T15:45:12.378Z,60.25
2022-08-23T15:46:12.495Z,59.96
2022-08-23T15:47:12.447Z,60.06
2022-08-23T15:48:12.481Z,60.25
2022-08-23T15:49:12.517Z,59.77
2022-08-23T15:50:12.552Z,59.38
2022-08-23T15:51:13.391Z,59.47
2022-08-23T15:52:12.615Z,59.47
2022-08-23T15:53:12.649Z,59.77
2022-08-23T15:54:12.680Z,60.35
2022-08-23T15:55:12.713Z,60.55
2022-08-23T15:56:12.745Z,60.35
2022-08-23T15:57:12.782Z,60.35
2022-08-23T15:58:12.818Z,60.16
2022-08-23T15:59:13.000Z,60.35
2022-08-23T16:00:12.884Z,60.55
2022-08-23T16:01:12.955Z,61.23
2022-08-23T16:02:13.001Z,60.45
2022-08-23T16:03:20.460Z,60.35
2022-08-23T16:04:13.019Z,60.61
2022-08-23T16:05:13.055Z,60.55
2022-08-23T16:06:13.088Z,60.64
2022-08-23T16:17:32.612Z,61.79
2022-08-23T16:18:32.647Z,61.79
2022-08-23T16:19:32.678Z,61.69
2022-08-23T16:20:32.715Z,62.44
2022-08-23T16:21:32.749Z,62.05
2022-08-23T16:22:32.783Z,62.63
2022-08-23T16:23:32.814Z,61.85
2022-08-23T16:24:32.850Z,62.34
2022-08-23T16:25:32.885Z,62.53
2022-08-23T16:26:35.339Z,62.82
2022-08-23T16:27:33.272Z,62.92
2022-08-23T16:28:32.993Z,62.24
2022-08-23T16:29:33.019Z,62.15
2022-08-23T16:30:33.116Z,62.05
2022-08-23T16:31:38.757Z,62.92
2022-08-23T16:32:33.123Z,62.73
2022-08-23T16:33:33.155Z,63.12
2022-08-23T16:34:33.190Z,63.41
2022-08-23T16:35:33.225Z,63.21
2022-08-23T16:36:33.261Z,63.31
2022-08-23T16:37:33.291Z,63.12
2022-08-23T16:38:33.330Z,63.31
2022-08-23T16:39:33.361Z,63.21
2022-08-23T16:40:33.414Z,63.51
2022-08-23T16:41:33.427Z,63.60
2022-08-23T16:42:33.462Z,63.12
2022-08-23T16:43:33.495Z,63.31
2022-08-23T16:44:33.528Z,63.70
2022-08-23T16:45:33.624Z,63.38
2022-08-23T16:46:33.600Z,63.57
2022-08-23T16:47:33.636Z,64.16
2022-08-23T16:48:33.664Z,64.29
2022-08-23T16:49:33.702Z,64.00
2022-08-23T16:50:33.733Z,63.96